createdAt,value
2022-11-12T00:01:21.241Z,7.94
2022-11-12T00:04:54.934Z,7.86
2022-11-12T00:08:30.200Z,7.81
2022-11-12T00:12:04.775Z,7.61
2022-11-12T00:15:39.019Z,7.49
2022-11-12T00:19:13.328Z,7.34
2022-11-12T00:22:47.224Z,7.28
2022-11-12T00:26:21.235Z,7.27
2022-11-12T00:29:55.641Z,7.31
2022-11-12T00:33:29.723Z,7.27
2022-11-12T00:37:03.543Z,7.13
2022-11-12T00:40:37.741Z,7.08
2022-11-12T00:44:12.274Z,7.01
2022-11-12T00:47:46.470Z,6.95
2022-11-12T00:51:20.176Z,6.93
2022-11-12T00:54:55.437Z,6.92
2022-11-12T00:58:29.428Z,6.99
2022-11-12T01:02:03.578Z,6.99
2022-11-12T01:05:40.375Z,7.00
2022-11-12T01:09:15.004Z,7.02
2022-11-12T01:12:49.295Z,7.05
2022-11-12T01:16:27.189Z,7.13
2022-11-12T01:20:01.304Z,7.18
2022-11-12T01:23:35.576Z,7.21
2022-11-12T01:27:10.035Z,7.18
2022-11-12T01:30:44.377Z,7.18
2022-11-12T01:34:19.182Z,7.18
2022-11-12T01:37:53.315Z,7.21
2022-11-12T01:41:30.236Z,7.22
2022-11-12T01:45:04.701Z,7.24
2022-11-12T01:48:44.916Z,7.18
2022-11-12T01:52:28.341Z,7.09
2022-11-12T01:56:03.360Z,7.10
2022-11-12T01:59:42.618Z,7.10
2022-11-12T02:03:21.165Z,7.10
2022-11-12T02:06:56.217Z,7.07
2022-11-12T02:10:31.671Z,7.03
2022-11-12T02:14:06.764Z,7.05
2022-11-12T02:17:40.792Z,7.06
2022-11-12T02:21:17.101Z,7.05
2022-11-12T02:24:51.176Z,7.05
2022-11-12T02:28:26.061Z,7.06
2022-11-12T02:32:00.604Z,7.06
2022-11-12T02:35:34.790Z,7.07
2022-11-12T02:39:08.828Z,7.01
2022-11-12T02:42:42.803Z,6.95
2022-11-12T02:46:17.453Z,6.95
2022-11-12T02:49:51.438Z,6.91
2022-11-12T02:53:25.568Z,6.96
2022-11-12T02:56:59.334Z,7.01
2022-11-12T03:00:33.161Z,6.99
2022-11-12T03:04:07.064Z,7.03
2022-11-12T03:07:40.980Z,7.06
2022-11-12T03:11:20.845Z,7.10
2022-11-12T03:14:55.031Z,7.10
2022-11-12T03:18:28.927Z,7.09
2022-11-12T03:22:03.822Z,7.09
2022-11-12T03:25:38.654Z,7.07
2022-11-12T03:29:14.601Z,7.05
2022-11-12T03:32:50.369Z,6.99
2022-11-12T03:36:24.769Z,6.98
2022-11-12T03:40:01.669Z,6.99
2022-11-12T03:43:35.888Z,6.97
2022-11-12T03:47:09.976Z,6.94
2022-11-12T03:50:43.929Z,6.93
2022-11-12T03:54:18.128Z,6.95
2022-11-12T03:57:52.901Z,6.91
2022-11-12T04:01:27.145Z,6.92
2022-11-12T04:05:15.037Z,6.86
2022-11-12T04:08:49.564Z,6.83
2022-11-12T04:12:43.224Z,6.84
2022-11-12T04:16:39.625Z,6.86
2022-11-12T04:20:30.644Z,6.86
2022-11-12T04:24:05.165Z,6.86
2022-11-12T04:27:43.392Z,6.79
2022-11-12T04:31:17.281Z,6.78
2022-11-12T04:34:51.532Z,6.84
2022-11-12T04:38:25.708Z,6.83
2022-11-12T04:42:13.833Z,6.80
2022-11-12T04:45:52.187Z,6.74
2022-11-12T04:49:26.321Z,6.78
2022-11-12T04:53:00.413Z,6.78
2022-11-12T04:56:34.480Z,6.75
2022-11-12T05:00:08.267Z,6.75
2022-11-12T05:03:42.382Z,6.71
2022-11-12T05:07:16.376Z,6.66
2022-11-12T05:10:52.110Z,6.59
2022-11-12T05:14:26.619Z,6.56
2022-11-12T05:18:01.209Z,6.60
2022-11-12T05:21:49.460Z,6.54
2022-11-12T05:25:23.670Z,6.53
2022-11-12T05:28:57.731Z,6.48
2022-11-12T05:32:32.123Z,6.48
2022-11-12T05:36:07.353Z,6.43
2022-11-12T05:39:41.509Z,6.43
2022-11-12T05:43:15.857Z,6.33
2022-11-12T05:46:51.107Z,6.35
2022-11-12T05:50:28.192Z,6.27
2022-11-12T05:54:02.695Z,6.31
2022-11-12T05:57:38.402Z,6.28
2022-11-12T06:01:13.363Z,6.30
2022-11-12T06:04:47.650Z,6.31
2022-11-12T06:08:22.721Z,6.32
2022-11-12T06:11:56.955Z,6.34
2022-11-12T06:15:33.948Z,6.31
2022-11-12T06:19:09.367Z,6.31
2022-11-12T06:22:43.669Z,6.37
2022-11-12T06:26:17.926Z,6.41
2022-11-12T06:29:51.951Z,6.56
2022-11-12T06:33:26.135Z,7.09
2022-11-12T06:37:00.263Z,7.44
2022-11-12T06:40:33.961Z,7.72
2022-11-12T06:44:08.379Z,7.91
2022-11-12T06:47:42.538Z,8.08
2022-11-12T06:51:23.819Z,8.40
2022-11-12T06:54:58.340Z,8.17
2022-11-12T06:58:32.557Z,8.24
2022-11-12T07:02:07.171Z,8.11
2022-11-12T07:05:45.245Z,8.16
2022-11-12T07:09:19.318Z,8.20
2022-11-12T07:12:55.263Z,8.28
2022-11-12T07:16:29.437Z,8.46
2022-11-12T07:20:04.232Z,8.33
2022-11-12T07:23:41.441Z,8.16
2022-11-12T07:27:15.854Z,8.18
2022-11-12T07:30:49.723Z,8.20
2022-11-12T07:34:26.714Z,8.09
2022-11-12T07:38:08.370Z,8.07
2022-11-12T07:41:45.151Z,8.06
2022-11-12T07:45:28.605Z,8.04
2022-11-12T07:49:03.654Z,8.00
2022-11-12T07:52:55.375Z,7.99
2022-11-12T07:56:33.876Z,8.14
2022-11-12T08:00:15.229Z,8.11
2022-11-12T08:03:56.675Z,8.41
2022-11-12T08:07:33.622Z,8.73
2022-11-12T08:11:07.863Z,8.96
2022-11-12T08:14:44.799Z,9.38
2022-11-12T08:18:30.900Z,9.68
2022-11-12T08:22:08.006Z,9.66
2022-11-12T08:25:49.461Z,9.74
2022-11-12T08:29:21.236Z,9.78
2022-11-12T08:32:58.758Z,9.83
2022-11-12T08:36:35.434Z,9.88
2022-11-12T08:40:10.198Z,10.02
2022-11-12T08:43:49.420Z,10.04
2022-11-12T08:47:35.099Z,10.13
2022-11-12T08:51:31.616Z,10.24
2022-11-12T08:55:23.448Z,10.43
2022-11-12T08:59:03.752Z,10.60
2022-11-12T09:02:42.698Z,10.69
2022-11-12T09:06:21.036Z,10.71
2022-11-12T09:10:02.990Z,10.87
2022-11-12T09:13:37.469Z,10.93
2022-11-12T09:17:13.411Z,10.97
2022-11-12T09:20:48.473Z,11.10
2022-11-12T09:24:34.884Z,11.24
2022-11-12T09:28:14.478Z,11.45
2022-11-12T09:31:48.727Z,11.62
2022-11-12T09:35:26.458Z,11.77
2022-11-12T09:39:06.672Z,11.97
2022-11-12T09:42:42.461Z,11.92
2022-11-12T09:46:28.242Z,11.96
2022-11-12T09:50:11.778Z,12.00
2022-11-12T09:53:53.841Z,12.11
2022-11-12T09:57:28.151Z,12.20
2022-11-12T10:01:12.580Z,12.34
2022-11-12T10:05:32.713Z,12.46
2022-11-12T10:09:15.678Z,12.62
2022-11-12T10:13:10.837Z,12.70
2022-11-12T10:17:03.050Z,12.72
2022-11-12T10:20:42.214Z,12.86
2022-11-12T10:24:26.282Z,12.88
2022-11-12T10:28:05.365Z,12.88
2022-11-12T10:31:45.470Z,12.93
2022-11-12T10:35:24.276Z,13.01
2022-11-12T10:39:03.554Z,12.98
2022-11-12T10:42:38.715Z,13.07
2022-11-12T10:46:25.661Z,12.92
2022-11-12T10:50:22.319Z,13.03
2022-11-12T10:53:58.586Z,13.02
2022-11-12T10:57:37.024Z,13.00
2022-11-12T11:05:36.150Z,13.07
2022-11-12T11:09:27.554Z,13.09
2022-11-12T11:13:33.640Z,13.14
2022-11-12T11:17:13.321Z,13.05
2022-11-12T11:20:53.500Z,13.12
2022-11-12T11:24:43.655Z,13.14
2022-11-12T11:28:28.567Z,13.20
2022-11-12T11:32:08.159Z,13.23
2022-11-12T11:36:08.288Z,13.24
2022-11-12T11:39:52.564Z,13.19
2022-11-12T11:43:57.961Z,13.23
2022-11-12T11:48:00.025Z,13.19
2022-11-12T11:51:29.767Z,13.20
2022-11-12T11:55:20.555Z,13.20
2022-11-12T11:59:09.098Z,13.21
2022-11-12T12:03:14.676Z,13.19
2022-11-12T12:06:54.862Z,13.14
2022-11-12T12:11:06.336Z,13.13
2022-11-12T12:14:37.826Z,13.02
2022-11-12T12:18:22.999Z,13.03
2022-11-12T12:22:00.493Z,12.99
2022-11-12T12:25:41.479Z,13.04
2022-11-12T12:29:21.906Z,13.02
2022-11-12T12:33:03.286Z,12.99
2022-11-12T12:36:43.398Z,12.96
2022-11-12T12:40:23.613Z,12.88
2022-11-12T12:44:08.679Z,12.90
2022-11-12T12:47:48.937Z,12.89
2022-11-12T12:51:36.718Z,12.89
2022-11-12T12:55:14.618Z,12.85
2022-11-12T12:58:56.029Z,12.84
2022-11-12T13:02:40.019Z,12.83
2022-11-12T13:06:30.316Z,12.82
2022-11-12T13:10:38.888Z,12.77
2022-11-12T13:14:57.875Z,12.75
2022-11-12T13:19:17.121Z,12.71
2022-11-12T13:23:12.106Z,12.66
2022-11-12T13:27:09.204Z,12.61
2022-11-12T13:31:38.050Z,12.60
2022-11-12T13:35:49.172Z,12.58
2022-11-12T13:39:30.138Z,12.57
2022-11-12T13:43:50.275Z,12.52
2022-11-12T13:47:34.544Z,12.52
2022-11-12T13:51:29.713Z,12.44
2022-11-12T13:55:21.404Z,12.39
2022-11-12T13:59:23.306Z,12.33
2022-11-12T14:03:02.453Z,12.30
2022-11-12T14:06:42.354Z,12.25
2022-11-12T14:10:24.568Z,12.20
2022-11-12T14:14:14.435Z,12.23
2022-11-12T14:18:01.094Z,12.21
2022-11-12T14:21:46.836Z,12.19
2022-11-12T14:25:46.366Z,12.11
2022-11-12T14:29:59.142Z,12.01
2022-11-12T14:38:43.422Z,11.85
2022-11-12T14:42:46.308Z,11.75
2022-11-12T14:46:42.869Z,11.68
2022-11-12T14:50:41.611Z,11.57
2022-11-12T14:54:36.408Z,11.45
2022-11-12T14:58:39.172Z,11.37
2022-11-12T15:02:57.872Z,11.28
2022-11-12T15:06:55.913Z,11.16
2022-11-12T15:11:56.898Z,11.11
2022-11-12T15:15:57.712Z,10.98
2022-11-12T15:19:41.003Z,10.92
2022-11-12T15:23:27.467Z,10.80
2022-11-12T15:27:09.114Z,10.68
2022-11-12T15:30:52.440Z,10.55
2022-11-12T15:34:51.254Z,10.48
2022-11-12T15:38:37.259Z,10.30
2022-11-12T15:42:29.518Z,10.19
2022-11-12T15:46:21.287Z,10.12
2022-11-12T15:50:01.666Z,10.08
2022-11-12T15:53:47.042Z,10.02
2022-11-12T15:57:30.797Z,9.98
2022-11-12T16:01:06.567Z,9.98
2022-11-12T16:04:45.182Z,9.92
2022-11-12T16:08:20.484Z,9.87
2022-11-12T16:11:58.456Z,9.82
2022-11-12T16:15:47.015Z,9.75
2022-11-12T16:19:22.518Z,9.69
2022-11-12T16:22:57.283Z,9.58
2022-11-12T16:26:35.527Z,9.42
2022-11-12T16:30:10.996Z,9.26
2022-11-12T16:33:46.219Z,9.08
2022-11-12T16:37:22.268Z,8.92
2022-11-12T16:41:09.976Z,8.72
2022-11-12T16:44:45.677Z,8.62
2022-11-12T16:48:55.703Z,8.49
2022-11-12T16:52:57.072Z,8.31
2022-11-12T16:56:43.957Z,8.15
2022-11-12T17:03:54.657Z,7.99
2022-11-12T17:07:37.955Z,7.83
2022-11-12T17:11:31.325Z,7.68
2022-11-12T17:16:37.986Z,7.73
2022-11-12T17:20:33.551Z,8.09
2022-11-12T17:23:53.744Z,8.30
2022-11-12T17:27:34.666Z,8.40
2022-11-12T17:31:35.438Z,8.38
2022-11-12T17:35:13.763Z,8.24
2022-11-12T17:38:49.074Z,8.10
2022-11-12T17:42:25.115Z,8.02
2022-11-12T17:46:05.762Z,7.76
2022-11-12T17:49:49.720Z,7.51
2022-11-12T17:53:28.785Z,7.39
2022-11-12T17:57:07.030Z,7.36
2022-11-12T18:00:48.173Z,7.15
2022-11-12T18:04:28.660Z,7.12
2022-11-12T18:11:58.415Z,7.50
2022-11-12T18:15:33.080Z,7.61
2022-11-12T18:19:13.445Z,7.66
2022-11-12T18:22:48.021Z,7.76
2022-11-12T18:26:30.760Z,7.82
2022-11-12T18:30:21.191Z,7.81
2022-11-12T18:34:26.648Z,7.86
2022-11-12T18:38:13.147Z,7.86
2022-11-12T18:41:47.485Z,7.84
2022-11-12T18:45:24.079Z,7.82
2022-11-12T18:48:58.986Z,7.79
2022-11-12T18:52:33.250Z,7.81
2022-11-12T18:56:11.203Z,7.78
2022-11-12T18:59:46.179Z,7.78
2022-11-12T19:03:25.927Z,7.73
2022-11-12T19:07:00.919Z,7.72
2022-11-12T19:10:36.381Z,7.71
2022-11-12T19:14:16.934Z,7.58
2022-11-12T19:17:55.943Z,7.65
2022-11-12T19:21:36.214Z,7.64
2022-11-12T19:25:11.406Z,7.61
2022-11-12T19:28:57.933Z,7.53
2022-11-12T19:32:35.299Z,7.48
2022-11-12T19:36:17.128Z,7.42
2022-11-12T19:39:51.358Z,7.35
2022-11-12T19:43:26.381Z,7.32
2022-11-12T19:47:01.194Z,7.31
2022-11-12T19:50:37.883Z,7.32
2022-11-12T19:54:12.736Z,7.31
2022-11-12T19:57:47.213Z,7.30
2022-11-12T20:01:24.298Z,7.32
2022-11-12T20:04:58.729Z,7.37
2022-11-12T20:08:36.396Z,7.32
2022-11-12T20:12:11.728Z,7.20
2022-11-12T20:15:47.568Z,7.21
2022-11-12T20:19:22.089Z,7.16
2022-11-12T20:22:59.418Z,7.18
2022-11-12T20:26:36.768Z,6.81
2022-11-12T20:30:16.312Z,6.98
2022-11-12T20:33:51.367Z,6.88
2022-11-12T20:37:26.613Z,6.64
2022-11-12T20:41:08.540Z,6.80
2022-11-12T20:44:44.284Z,6.89
2022-11-12T20:48:30.261Z,6.86
2022-11-12T20:52:07.816Z,6.75
2022-11-12T20:55:47.269Z,6.70
2022-11-12T20:59:24.286Z,6.73
2022-11-12T21:02:58.644Z,6.79
2022-11-12T21:06:35.522Z,6.78
2022-11-12T21:10:09.943Z,6.71
2022-11-12T21:13:45.762Z,6.60
2022-11-12T21:17:20.604Z,6.62
2022-11-12T21:20:55.359Z,6.78
2022-11-12T21:24:29.186Z,6.77
2022-11-12T21:28:04.178Z,6.72
2022-11-12T21:31:38.882Z,6.69
2022-11-12T21:35:17.329Z,6.87
2022-11-12T21:38:51.817Z,6.97
2022-11-12T21:42:25.546Z,7.05
2022-11-12T21:45:59.772Z,7.12
2022-11-12T21:49:35.220Z,7.18
2022-11-12T21:53:09.142Z,7.23
2022-11-12T21:56:44.884Z,7.27
2022-11-12T22:04:01.915Z,7.27
2022-11-12T22:07:35.917Z,7.17
2022-11-12T22:11:15.605Z,7.25
2022-11-12T22:14:51.721Z,7.25
2022-11-12T22:18:25.688Z,7.31
2022-11-12T22:22:00.343Z,7.27
2022-11-12T22:25:34.294Z,7.28
2022-11-12T22:29:12.138Z,7.20
2022-11-12T22:32:46.196Z,7.19
2022-11-12T22:36:23.090Z,7.23
2022-11-12T22:39:57.169Z,7.24
2022-11-12T22:43:30.977Z,7.22
2022-11-12T22:47:04.912Z,7.17
2022-11-12T22:50:39.350Z,7.01
2022-11-12T22:54:16.723Z,7.00
2022-11-12T22:57:52.126Z,6.98
2022-11-12T23:01:31.413Z,6.99
2022-11-12T23:05:05.896Z,6.90
2022-11-12T23:08:44.171Z,6.91
2022-11-12T23:12:18.284Z,6.87
2022-11-12T23:15:54.337Z,6.84
2022-11-12T23:19:30.066Z,6.95
2022-11-12T23:23:04.098Z,7.07
2022-11-12T23:26:39.138Z,7.06
2022-11-12T23:30:15.646Z,7.08
2022-11-12T23:33:53.974Z,7.08
2022-11-12T23:37:28.009Z,6.98
2022-11-12T23:41:06.201Z,7.03
2022-11-12T23:44:40.227Z,6.78
2022-11-12T23:48:14.746Z,6.79
2022-11-12T23:51:51.758Z,6.83
2022-11-12T23:55:29.059Z,6.69
2022-11-12T23:59:05.030Z,6.65
